Time;durP1;ratioP1;P1;durP2;ratioP2;P2;SDS_P1;SDS_P2;PMS_P1;PMS_P2;Temp;Humidity;BMP_temperature;BMP_pressure;BME280_temperature;BME280_humidity;BME280_pressure;Samples;Min_cycle;Max_cycle;Signal;HPM_P1;HPM_P2
2022/09/24 00:01:19;;;;;;;7.70;5.30;;;;;;;17.47;77.34;98567.53;5093015;28;20070;-46
2022/09/24 00:03:53;;;;;;;9.05;4.80;;;;;;;17.33;78.71;98562.59;5091634;28;20482;-46
2022/09/24 00:06:19;;;;;;;7.65;4.47;;;;;;;17.17;79.72;98561.59;5091564;28;20032;-46
2022/09/24 00:08:48;;;;;;;7.60;4.90;;;;;;;16.93;80.22;98563.66;5092912;28;20425;-46
2022/09/24 00:11:14;;;;;;;6.55;5.40;;;;;;;16.75;81.60;98555.97;5092478;28;20087;-46
2022/09/24 00:13:40;;;;;;;18.05;14.02;;;;;;;16.64;82.60;98562.97;5091473;28;20020;-46
2022/09/24 00:16:09;;;;;;;15.43;7.15;;;;;;;16.92;84.30;98564.72;5092704;28;20024;-46
2022/09/24 00:18:36;;;;;;;11.55;5.70;;;;;;;17.42;85.25;98549.69;5091396;28;20498;-46
2022/09/24 00:21:23;;;;;;;11.98;8.70;;;;;;;17.74;84.65;98546.31;5091417;28;20394;-45
2022/09/24 00:23:57;;;;;;;7.18;3.78;;;;;;;17.56;82.15;98539.50;5091231;28;20486;-46
2022/09/24 00:29:10;;;;;;;20.95;12.80;;;;;;;17.33;83.62;98551.19;5092856;28;20030;-46
2022/09/24 00:31:36;;;;;;;14.85;11.02;;;;;;;17.63;84.37;98547.28;5091107;28;20443;-46
2022/09/24 00:34:03;;;;;;;7.38;5.68;;;;;;;17.86;83.69;98546.97;5092435;28;20440;-46
2022/09/24 00:36:31;;;;;;;11.02;5.80;;;;;;;18.07;83.42;98547.16;5091083;28;20034;-46
2022/09/24 00:38:59;;;;;;;7.38;5.05;;;;;;;18.21;82.48;98540.41;5092389;28;20020;-46
2022/09/24 00:41:30;;;;;;;9.18;4.55;;;;;;;18.34;82.94;98541.81;5090879;28;20028;-46
2022/09/24 00:43:56;;;;;;;12.15;4.40;;;;;;;18.68;83.21;98544.97;5091014;28;20545;-46
2022/09/24 00:46:39;;;;;;;9.52;4.10;;;;;;;19.08;82.50;98540.16;5092188;28;20072;-46
2022/09/24 00:49:17;;;;;;;10.70;4.35;;;;;;;19.50;80.93;98541.91;5092227;28;20050;-46
2022/09/24 00:51:47;;;;;;;5.38;3.92;;;;;;;19.66;80.63;98540.06;5090836;28;20036;-46
2022/09/24 00:54:25;;;;;;;8.57;4.25;;;;;;;19.75;79.62;98534.00;5090772;28;20086;-46
2022/09/24 00:56:53;;;;;;;9.95;3.72;;;;;;;19.91;79.53;98542.03;5074103;28;20031;-46
2022/09/24 00:59:22;;;;;;;8.15;3.95;;;;;;;20.04;78.70;98532.69;5090997;28;20115;-46
2022/09/24 01:01:50;;;;;;;153.60;140.48;;;;;;;20.02;77.96;98527.66;5091993;28;20024;-46
2022/09/24 01:04:21;;;;;;;8.77;5.93;;;;;;;19.87;77.68;98527.63;5092009;28;20465;-46
2022/09/24 01:06:50;;;;;;;23.98;17.70;;;;;;;19.57;77.69;98526.50;5090994;28;20039;-46
2022/09/24 01:09:19;;;;;;;20.05;17.92;;;;;;;19.53;79.15;98530.72;5090291;28;20024;-48
2022/09/24 01:12:13;;;;;;;10.15;7.22;;;;;;;19.59;79.55;98532.34;5090868;28;20032;-46
2022/09/24 01:14:46;;;;;;;14.25;6.85;;;;;;;19.34;79.40;98533.09;5091885;28;20089;-46
2022/09/24 01:17:44;;;;;;;10.60;6.25;;;;;;;18.77;79.92;98529.31;5091823;28;20035;-46
2022/09/24 01:20:13;;;;;;;9.70;6.25;;;;;;;18.12;80.99;98528.63;5091815;28;20028;-46
2022/09/24 01:22:51;;;;;;;10.73;7.05;;;;;;;17.58;82.36;98526.78;5091795;28;20028;-46
2022/09/24 01:25:58;;;;;;;9.73;7.13;;;;;;;17.18;83.81;98525.25;5091757;28;20393;-46
2022/09/24 01:28:36;;;;;;;10.27;8.45;;;;;;;16.96;85.23;98526.06;5091767;28;20093;-45
2022/09/24 01:31:14;;;;;;;11.70;8.95;;;;;;;16.86;86.31;98525.13;5090606;28;20032;-45
2022/09/24 01:33:43;;;;;;;13.75;10.25;;;;;;;16.67;86.59;98528.03;5090357;28;20028;-45
2022/09/24 01:36:09;;;;;;;39.25;11.32;;;;;;;16.42;87.34;98519.72;5090611;28;20028;-45
2022/09/24 01:38:43;;;;;;;12.73;11.52;;;;;;;16.24;88.13;98516.28;5091683;28;20103;-45
2022/09/24 01:41:14;;;;;;;16.60;12.82;;;;;;;16.27;88.95;98504.41;5091894;28;20040;-45
2022/09/24 01:43:41;;;;;;;19.02;9.25;;;;;;;16.41;90.60;98507.53;5091639;28;20034;-45
2022/09/24 01:46:09;;;;;;;12.93;10.05;;;;;;;16.73;91.32;98508.50;5091578;28;20024;-45
2022/09/24 01:48:36;;;;;;;12.20;7.32;;;;;;;16.78;90.72;98497.97;5091531;28;20097;-45
2022/09/24 01:51:24;;;;;;;9.50;7.97;;;;;;;16.90;90.77;98499.72;5073214;28;20024;-45
2022/09/24 01:53:52;;;;;;;11.13;8.30;;;;;;;16.80;89.94;98500.38;5094907;28;20115;-46
2022/09/24 01:56:49;;;;;;;12.65;8.40;;;;;;;16.77;89.97;98500.88;5094093;28;20054;-45
2022/09/24 01:59:30;;;;;;;11.80;8.25;;;;;;;16.58;89.60;98495.06;5090343;28;20032;-45
2022/09/24 02:02:44;;;;;;;11.38;9.25;;;;;;;16.36;89.66;98490.50;5093966;28;20036;-46
2022/09/24 02:05:23;;;;;;;15.30;9.45;;;;;;;16.25;90.73;98495.91;5095199;28;20575;-45
2022/09/24 02:08:07;;;;;;;10.48;8.60;;;;;;;16.58;92.46;98495.84;5095499;28;20040;-45
2022/09/24 02:11:00;;;;;;;10.10;8.32;;;;;;;16.40;91.32;98492.66;5093486;28;20525;-45
2022/09/24 02:13:38;;;;;;;16.85;8.85;;;;;;;16.37;92.63;98494.75;5095118;28;20038;-45
2022/09/24 02:16:09;;;;;;;9.82;6.45;;;;;;;16.90;94.52;98489.94;5095074;28;20063;-45
2022/09/24 02:18:39;;;;;;;12.75;8.23;;;;;;;17.16;93.68;98482.28;5095063;28;20020;-44
2022/09/24 02:21:09;;;;;;;11.07;7.13;;;;;;;17.28;93.30;98480.28;5093932;28;20040;-45
2022/09/24 02:23:39;;;;;;;9.18;5.60;;;;;;;17.36;93.12;98479.88;5093925;28;20022;-44
2022/09/24 02:26:05;;;;;;;12.18;6.18;;;;;;;17.48;92.84;98470.94;5094960;28;20032;-44
2022/09/24 02:28:33;;;;;;;13.13;7.35;;;;;;;17.55;93.13;98469.69;5093544;28;20020;-44
2022/09/24 02:31:02;;;;;;;8.48;6.85;;;;;;;17.60;93.00;98478.75;5094621;28;20032;-44
2022/09/24 02:36:16;;;;;;;5.25;4.30;;;;;;;17.08;91.16;98464.97;5094959;28;20055;-45
2022/09/24 02:38:42;;;;;;;4.75;3.70;;;;;;;16.78;90.82;98463.53;5094887;28;20024;-45
2022/09/24 02:41:07;;;;;;;9.98;3.95;;;;;;;16.54;90.96;98462.94;5094541;28;20379;-45
2022/09/24 02:43:35;;;;;;;3.85;3.10;;;;;;;16.55;91.96;98466.41;5093342;28;20428;-45
2022/09/24 02:46:01;;;;;;;9.07;4.93;;;;;;;16.49;91.80;98457.56;5094658;28;20043;-45
2022/09/24 02:48:27;;;;;;;11.88;5.10;;;;;;;16.51;91.75;98466.06;5093136;28;20025;-45
2022/09/24 02:50:52;;;;;;;8.68;5.65;;;;;;;16.52;92.33;98465.03;5092957;28;20031;-45
2022/09/24 02:53:18;;;;;;;8.20;4.30;;;;;;;16.75;93.29;98457.91;5093338;28;20035;-45
2022/09/24 02:55:44;;;;;;;8.32;3.83;;;;;;;16.96;93.53;98454.50;5092943;28;20093;-45
2022/09/24 02:58:10;;;;;;;8.93;4.38;;;;;;;17.11;93.67;98455.72;5094223;28;20501;-45
2022/09/24 03:00:36;;;;;;;9.68;3.92;;;;;;;17.10;92.74;98457.56;5094201;28;20028;-45
2022/09/24 03:03:02;;;;;;;5.05;3.25;;;;;;;17.09;93.04;98465.78;5093775;28;20019;-45
2022/09/24 03:05:27;;;;;;;6.25;3.53;;;;;;;17.18;93.28;98461.63;5094072;28;20020;-45
2022/09/24 03:07:53;;;;;;;6.10;3.35;;;;;;;17.10;92.20;98456.75;5092864;28;20047;-45
2022/09/24 03:10:19;;;;;;;9.15;4.00;;;;;;;17.04;92.33;98465.69;5093698;28;20051;-45
2022/09/24 03:12:45;;;;;;;5.28;3.50;;;;;;;16.85;91.18;98458.06;5092650;28;20020;-45
2022/09/24 03:15:10;;;;;;;8.88;6.93;;;;;;;16.67;91.50;98456.47;5093946;28;20028;-45
2022/09/24 03:17:36;;;;;;;12.18;6.20;;;;;;;16.57;91.65;98459.81;5093861;28;20366;-45
2022/09/24 03:20:02;;;;;;;8.73;3.53;;;;;;;16.65;92.49;98453.28;5093799;28;20417;-45
2022/09/24 03:22:28;;;;;;;6.43;3.45;;;;;;;16.60;92.30;98455.06;5093783;28;20035;-45
2022/09/24 03:24:53;;;;;;;6.97;3.78;;;;;;;16.48;92.19;98450.69;5093707;28;20028;-45
2022/09/24 03:27:20;;;;;;;8.85;4.53;;;;;;;16.36;92.16;98450.00;5093746;28;20114;-44
2022/09/24 03:32:32;;;;;;;5.22;3.70;;;;;;;16.18;92.42;98449.19;5093650;28;20081;-45
2022/09/24 03:35:00;;;;;;;9.57;3.83;;;;;;;16.16;92.50;98447.84;5092195;28;20020;-44
2022/09/24 03:37:26;;;;;;;4.10;3.42;;;;;;;16.13;92.60;98448.31;5093535;28;20113;-45
2022/09/24 03:39:51;;;;;;;6.80;3.35;;;;;;;16.17;93.01;98442.28;5093435;28;20439;-45
2022/09/24 03:42:17;;;;;;;3.45;3.10;;;;;;;16.36;93.60;98439.41;5092069;28;20016;-45
2022/09/24 03:44:44;;;;;;;3.38;3.03;;;;;;;16.36;92.75;98442.84;5093391;28;20107;-45
2022/09/24 03:47:09;;;;;;;5.63;2.95;;;;;;;16.30;92.51;98435.88;5091946;28;20020;-45
2022/09/24 03:49:35;;;;;;;4.40;2.90;;;;;;;16.30;92.27;98429.78;5093192;28;20562;-45
2022/09/24 03:52:01;;;;;;;10.30;2.47;;;;;;;16.20;91.78;98432.25;5093214;28;20026;-45
2022/09/24 03:54:26;;;;;;;7.75;3.13;;;;;;;16.09;91.65;98434.75;5091855;28;20486;-45
2022/09/24 03:56:52;;;;;;;8.13;3.50;;;;;;;16.03;92.11;98427.78;5091745;28;20020;-45
2022/09/24 03:59:17;;;;;;;7.88;3.60;;;;;;;15.99;92.32;98429.31;5093085;28;20024;-45
2022/09/24 04:01:43;;;;;;;13.68;4.25;;;;;;;15.96;92.61;98425.31;5093026;28;20074;-44
2022/09/24 04:04:09;;;;;;;4.40;3.00;;;;;;;15.94;92.71;98430.03;5091651;28;20028;-45
2022/09/24 04:06:35;;;;;;;8.32;3.60;;;;;;;15.85;92.35;98422.75;5075049;28;20106;-44
2022/09/24 04:09:00;;;;;;;6.10;2.70;;;;;;;15.80;92.35;98420.84;5092883;28;20055;-44
2022/09/24 04:11:26;;;;;;;9.25;4.68;;;;;;;15.77;92.64;98414.19;5091323;28;20527;-44
2022/09/24 04:13:52;;;;;;;11.00;5.15;;;;;;;15.97;93.55;98415.53;5091518;28;20027;-45
2022/09/24 04:16:17;;;;;;;6.75;2.55;;;;;;;16.12;93.83;98413.09;5090723;28;20020;-45
2022/09/24 04:18:44;;;;;;;7.43;3.50;;;;;;;15.97;92.23;98421.59;5091442;28;20036;-45
2022/09/24 04:21:10;;;;;;;7.47;3.38;;;;;;;15.85;91.65;98418.25;5092628;28;20035;-45
2022/09/24 04:23:35;;;;;;;6.82;3.35;;;;;;;15.93;92.78;98411.75;5091345;28;20024;-45
2022/09/24 04:26:01;;;;;;;8.88;3.80;;;;;;;16.02;92.66;98412.13;5092577;28;20024;-45
2022/09/24 04:28:28;;;;;;;4.93;3.22;;;;;;;16.08;93.34;98414.63;5091540;28;20026;-45
2022/09/24 04:30:54;;;;;;;11.75;3.55;;;;;;;16.35;94.36;98413.94;5091065;28;20050;-45
2022/09/24 04:33:20;;;;;;;7.28;3.17;;;;;;;16.67;94.38;98410.66;5092446;28;20016;-45
2022/09/24 04:35:46;;;;;;;7.35;3.10;;;;;;;16.84;93.51;98410.59;5092339;28;20512;-45
2022/09/24 04:38:12;;;;;;;4.90;2.50;;;;;;;16.87;92.01;98402.97;5091442;28;20021;-45
2022/09/24 04:40:38;;;;;;;12.02;9.15;;;;;;;16.83;91.14;98411.66;5091113;28;20490;-45
2022/09/24 04:43:05;;;;;;;4.50;2.72;;;;;;;16.83;90.54;98407.16;5092406;28;20016;-45
2022/09/24 04:45:31;;;;;;;6.15;4.03;;;;;;;16.72;89.57;98400.09;5092259;28;20031;-46
2022/09/24 04:47:57;;;;;;;6.85;3.33;;;;;;;16.62;90.19;98399.97;5092280;28;20035;-46
2022/09/24 04:50:31;;;;;;;8.05;2.92;;;;;;;16.75;91.77;98403.06;5092145;28;20024;-46
2022/09/24 04:52:57;;;;;;;6.80;3.33;;;;;;;17.03;91.95;98403.13;5092266;28;20020;-46
2022/09/24 04:55:24;;;;;;;9.90;3.45;;;;;;;17.23;91.65;98405.19;5090878;28;20779;-46
2022/09/24 04:57:50;;;;;;;12.25;3.60;;;;;;;17.35;91.49;98403.97;5092122;28;20021;-46
2022/09/24 05:00:18;;;;;;;9.38;3.17;;;;;;;17.40;90.83;98405.06;5090764;28;20032;-46
2022/09/24 05:02:44;;;;;;;11.38;3.75;;;;;;;17.58;91.05;98407.34;5090730;28;20022;-46
2022/09/24 05:05:11;;;;;;;5.82;2.95;;;;;;;17.82;90.49;98407.81;5092006;28;20027;-46
2022/09/24 05:07:37;;;;;;;6.82;2.95;;;;;;;18.07;89.52;98409.06;5092070;28;20059;-46
2022/09/24 05:10:03;;;;;;;6.18;2.90;;;;;;;18.17;88.06;98403.84;5090226;28;20048;-46
2022/09/24 05:12:28;;;;;;;5.25;2.70;;;;;;;18.31;87.53;98402.34;5091917;28;20028;-46
2022/09/24 05:14:54;;;;;;;6.88;2.60;;;;;;;18.21;85.31;98406.78;5091854;28;20028;-46
2022/09/24 05:17:20;;;;;;;3.55;2.92;;;;;;;17.83;83.82;98403.28;5090541;28;20130;-46
2022/09/24 05:19:46;;;;;;;8.02;2.92;;;;;;;17.63;85.39;98403.97;5090551;28;20031;-46
2022/09/24 05:22:11;;;;;;;9.55;2.70;;;;;;;17.84;87.08;98410.25;5091806;28;20494;-46
2022/09/24 05:24:37;;;;;;;7.18;2.85;;;;;;;18.15;87.19;98416.59;5091839;28;20398;-46
2022/09/24 05:27:09;;;;;;;10.05;3.65;;;;;;;18.54;86.57;98409.06;5094340;28;20023;-46
2022/09/24 05:29:42;;;;;;;10.07;2.60;;;;;;;18.80;84.67;98403.09;5095939;28;20409;-46
2022/09/24 05:32:14;;;;;;;6.28;2.65;;;;;;;18.87;84.40;98401.78;5094598;28;20402;-46
2022/09/24 05:34:41;;;;;;;8.27;2.92;;;;;;;19.00;84.33;98405.81;5095868;28;20031;-46
2022/09/24 05:37:09;;;;;;;8.50;2.83;;;;;;;19.05;83.97;98418.31;5095766;28;20032;-46
2022/09/24 05:39:34;;;;;;;6.57;2.70;;;;;;;19.14;83.76;98424.75;5095835;28;20035;-46
2022/09/24 05:42:04;;;;;;;7.32;4.15;;;;;;;19.15;82.94;98413.03;5094356;28;20024;-46
2022/09/24 05:44:32;;;;;;;7.65;2.60;;;;;;;19.15;82.13;98415.69;5094350;28;20026;-46
2022/09/24 05:46:58;;;;;;;7.82;4.90;;;;;;;19.05;82.21;98427.09;5094286;28;20028;-46
2022/09/24 05:49:24;;;;;;;3.90;2.75;;;;;;;18.80;81.86;98419.84;5095661;28;20036;-46
2022/09/24 05:51:50;;;;;;;4.32;2.67;;;;;;;18.53;81.73;98422.63;5094137;28;20020;-46
2022/09/24 05:54:17;;;;;;;6.50;2.63;;;;;;;18.09;81.26;98414.94;5094174;28;20111;-46
2022/09/24 05:56:43;;;;;;;5.18;3.45;;;;;;;17.57;81.80;98421.69;5095441;28;20016;-46
2022/09/24 05:59:08;;;;;;;11.60;7.80;;;;;;;17.15;83.74;98411.75;5095366;28;20490;-46
2022/09/24 06:01:34;;;;;;;9.90;6.15;;;;;;;16.77;85.38;98416.84;5094026;28;20054;-46
2022/09/24 06:04:00;;;;;;;6.35;5.15;;;;;;;16.44;86.62;98427.56;5095354;28;20024;-46
2022/09/24 06:06:26;;;;;;;6.80;4.93;;;;;;;16.34;88.88;98433.53;5095303;28;20116;-44
2022/09/24 06:08:53;;;;;;;10.73;6.38;;;;;;;16.84;91.82;98419.38;5095171;28;20027;-44
2022/09/24 06:11:21;;;;;;;9.57;4.78;;;;;;;17.04;90.72;98434.69;5094911;28;20101;-44
2022/09/24 06:13:47;;;;;;;157.63;143.75;;;;;;;16.97;90.81;98426.94;5095009;28;20059;-44
2022/09/24 06:16:13;;;;;;;18.10;12.93;;;;;;;17.08;91.54;98437.63;5095072;28;20058;-46
2022/09/24 06:18:41;;;;;;;13.95;5.28;;;;;;;17.23;90.71;98431.72;5095091;28;20481;-46
2022/09/24 06:21:10;;;;;;;10.57;5.47;;;;;;;17.38;90.48;98429.19;5094992;28;20036;-46
2022/09/24 06:23:37;;;;;;;6.32;5.13;;;;;;;17.66;90.11;98427.31;5093932;28;20048;-46
2022/09/24 06:26:06;;;;;;;8.73;7.45;;;;;;;17.68;88.57;98433.19;5093578;28;20020;-45
2022/09/24 06:28:32;;;;;;;6.90;4.65;;;;;;;17.87;88.19;98434.44;5095129;28;20389;-45
2022/09/24 06:30:59;;;;;;;7.00;3.60;;;;;;;18.07;86.39;98431.13;5094719;28;20028;-44
2022/09/24 06:33:26;;;;;;;5.88;3.67;;;;;;;17.99;84.41;98431.63;5094741;28;20024;-46
2022/09/24 06:35:52;;;;;;;9.65;5.35;;;;;;;17.76;83.91;98432.72;5094909;28;20448;-46
2022/09/24 06:38:17;;;;;;;8.40;4.75;;;;;;;17.84;85.25;98429.63;5092606;28;20027;-44
2022/09/24 06:40:47;;;;;;;7.32;3.42;;;;;;;18.13;85.73;98424.81;5094558;28;20460;-44
2022/09/24 06:43:14;;;;;;;6.47;3.42;;;;;;;18.47;85.77;98434.28;5094580;28;20016;-45
2022/09/24 06:45:41;;;;;;;9.93;3.70;;;;;;;18.80;85.00;98437.66;5093150;28;20035;-46
2022/09/24 06:48:11;;;;;;;7.10;3.45;;;;;;;19.07;83.25;98432.16;5094447;28;20023;-44
2022/09/24 06:50:42;;;;;;;7.93;3.08;;;;;;;19.02;81.74;98437.47;5094410;28;20035;-46
2022/09/24 06:53:10;;;;;;;7.30;3.30;;;;;;;19.05;81.39;98431.63;5094441;28;20050;-46
2022/09/24 06:55:39;;;;;;;3.88;3.00;;;;;;;18.98;80.57;98439.06;5093032;28;20032;-46
2022/09/24 06:58:07;;;;;;;6.10;2.72;;;;;;;18.87;80.77;98432.91;5093297;28;20470;-45
2022/09/24 07:00:34;;;;;;;6.38;3.08;;;;;;;18.72;80.26;98437.06;5094288;28;20032;-46
2022/09/24 07:03:00;;;;;;;6.85;3.75;;;;;;;18.54;81.40;98435.66;5093096;28;20408;-46
2022/09/24 07:05:25;;;;;;;6.47;4.10;;;;;;;18.70;82.58;98433.06;5094117;28;20028;-46
2022/09/24 07:07:51;;;;;;;8.32;4.30;;;;;;;18.85;83.51;98430.50;5094089;28;20028;-46
2022/09/24 07:10:17;;;;;;;14.90;11.35;;;;;;;18.91;84.19;98437.44;5093634;28;20536;-46
2022/09/24 07:12:46;;;;;;;5.30;4.25;;;;;;;19.00;84.22;98432.41;5094240;28;20024;-46
2022/09/24 07:15:14;;;;;;;12.25;8.07;;;;;;;18.97;83.40;98443.56;5092628;28;20024;-46
2022/09/24 07:17:40;;;;;;;6.30;4.68;;;;;;;18.69;82.57;98452.72;5093937;28;20020;-45
2022/09/24 07:20:06;;;;;;;11.00;5.60;;;;;;;18.43;82.78;98455.28;5094138;28;20031;-45
2022/09/24 07:22:38;;;;;;;15.70;6.20;;;;;;;18.23;83.32;98455.13;5094099;28;20031;-45
2022/09/24 07:25:06;;;;;;;13.48;4.72;;;;;;;18.48;84.37;98449.97;5092610;28;20024;-45
2022/09/24 07:27:32;;;;;;;8.35;4.55;;;;;;;18.60;83.58;98448.97;5093747;28;20016;-45
2022/09/24 07:29:57;;;;;;;11.50;6.82;;;;;;;18.44;82.92;98443.56;5092219;28;20023;-46
2022/09/24 07:32:23;;;;;;;8.20;4.57;;;;;;;18.33;83.12;98441.91;5093921;28;20095;-46
2022/09/24 07:34:49;;;;;;;10.88;4.55;;;;;;;18.24;84.05;98438.16;5092174;28;20122;-46
2022/09/24 07:37:15;;;;;;;9.43;3.92;;;;;;;18.63;84.31;98437.81;5093508;28;20099;-45
2022/09/24 07:39:41;;;;;;;17.05;4.88;;;;;;;19.12;82.98;98432.19;5092165;28;20378;-46
2022/09/24 07:42:06;;;;;;;8.45;3.50;;;;;;;19.63;81.36;98426.94;5093304;28;20017;-46
2022/09/24 07:44:32;;;;;;;124.78;113.93;;;;;;;20.06;79.57;98427.50;5092010;28;20035;-46
2022/09/24 07:46:57;;;;;;;10.68;9.57;;;;;;;20.32;78.12;98427.41;5092227;28;20440;-46
2022/09/24 07:49:23;;;;;;;8.98;4.60;;;;;;;20.48;77.06;98423.66;5091305;28;20028;-47
2022/09/24 07:51:49;;;;;;;12.52;3.90;;;;;;;20.61;75.97;98421.53;5092700;28;20032;-46
2022/09/24 07:54:15;;;;;;;4.22;3.83;;;;;;;20.52;73.24;98421.25;5091896;28;20038;-45
2022/09/24 07:56:41;;;;;;;4.03;2.60;;;;;;;19.87;71.81;98413.91;5093392;28;20390;-45
2022/09/24 07:59:10;;;;;;;5.15;3.47;;;;;;;19.21;73.31;98425.28;5091933;28;20024;-47
2022/09/24 08:01:35;;;;;;;6.47;3.30;;;;;;;19.06;74.34;98430.56;5092963;28;20032;-45
2022/09/24 08:04:03;;;;;;;4.95;3.05;;;;;;;19.10;74.51;98426.34;5093035;28;20058;-45
2022/09/24 08:06:32;;;;;;;7.22;3.17;;;;;;;19.23;73.84;98422.34;5092894;28;20093;-45
2022/09/24 08:08:58;;;;;;;7.80;4.68;;;;;;;19.29;73.30;98427.41;5092922;28;20463;-45
2022/09/24 08:11:24;;;;;;;7.70;3.60;;;;;;;19.17;73.03;98429.53;5092603;28;20075;-45
2022/09/24 08:13:50;;;;;;;9.48;3.03;;;;;;;19.19;73.29;98426.59;5092861;28;20020;-45
2022/09/24 08:16:16;;;;;;;6.95;3.03;;;;;;;19.37;73.09;98426.09;5092785;28;20375;-47
2022/09/24 08:18:42;;;;;;;7.30;2.88;;;;;;;19.58;71.68;98432.28;5092928;28;20024;-45
2022/09/24 08:21:10;;;;;;;5.22;2.67;;;;;;;19.69;70.81;98423.19;5092744;28;20032;-45
2022/09/24 08:23:40;;;;;;;4.97;3.10;;;;;;;19.65;70.64;98424.00;5091331;28;20460;-45
2022/09/24 08:26:07;;;;;;;90.20;81.38;;;;;;;19.65;70.86;98430.13;5092682;28;20028;-46
2022/09/24 08:28:33;;;;;;;142.38;96.22;;;;;;;19.76;71.61;98436.31;5092448;28;20048;-46
2022/09/24 08:31:00;;;;;;;25.50;10.43;;;;;;;19.89;70.72;98432.28;5091259;28;20402;-47
2022/09/24 08:33:31;;;;;;;8.77;5.10;;;;;;;20.04;69.66;98434.94;5092527;28;20552;-47
2022/09/24 08:36:00;;;;;;;7.03;3.63;;;;;;;20.05;69.78;98441.06;5092398;28;20047;-47
2022/09/24 08:38:26;;;;;;;7.80;4.07;;;;;;;19.98;70.14;98443.19;5092347;28;20485;-46
2022/09/24 08:41:04;;;;;;;5.78;4.00;;;;;;;19.73;70.42;98440.28;5092306;28;20034;-46
2022/09/24 08:43:51;;;;;;;8.68;3.72;;;;;;;19.47;71.99;98433.31;5092566;28;20039;-45
2022/09/24 08:49:19;;;;;;;4.27;3.17;;;;;;;19.83;71.25;98439.47;5092561;28;20106;-46
2022/09/24 08:51:53;;;;;;;5.13;3.42;;;;;;;20.21;70.21;98434.66;5092130;28;20286;-46
2022/09/24 08:54:23;;;;;;;4.95;3.00;;;;;;;20.50;70.00;98448.19;5091296;28;20409;-46
2022/09/24 08:56:50;;;;;;;6.15;3.30;;;;;;;20.80;69.22;98443.84;5092355;28;20389;-46
2022/09/24 08:59:36;;;;;;;4.15;2.60;;;;;;;21.02;67.90;98440.00;5092113;28;20024;-47
2022/09/24 09:02:20;;;;;;;5.45;2.67;;;;;;;21.27;67.73;98444.38;5090605;28;20024;-46
2022/09/24 09:05:13;;;;;;;9.23;3.63;;;;;;;21.40;68.15;98445.66;5091070;28;20082;-47
2022/09/24 09:07:44;;;;;;;7.75;3.20;;;;;;;21.82;67.31;98445.13;5091979;28;20020;-47
2022/09/24 09:10:25;;;;;;;5.53;2.80;;;;;;;22.14;64.55;98449.13;5091585;28;20044;-47
2022/09/24 09:12:57;;;;;;;5.45;2.47;;;;;;;22.52;63.50;98443.94;5091868;28;20048;-46
2022/09/24 09:15:32;;;;;;;4.05;2.70;;;;;;;22.93;62.45;98446.91;5091937;28;20485;-46
2022/09/24 09:18:13;;;;;;;5.38;2.40;;;;;;;23.13;60.97;98440.53;5091960;28;20568;-46
2022/09/24 09:20:44;;;;;;;3.53;2.10;;;;;;;23.17;58.58;98431.94;5091877;28;20119;-47
2022/09/24 09:23:32;;;;;;;3.72;2.10;;;;;;;;;;5090868;28;20034;-46
2022/09/24 09:25:59;;;;;;;5.22;2.60;;;;;;;23.29;59.50;98446.47;5091853;28;20028;-47
2022/09/24 09:28:28;;;;;;;11.73;2.83;;;;;;;23.53;57.99;98440.25;5091786;28;20077;-46
2022/09/24 09:31:22;;;;;;;18.88;3.13;;;;;;;23.63;57.82;98428.56;5091676;28;20030;-47
2022/09/24 09:34:31;;;;;;;12.40;2.75;;;;;;;23.74;57.14;98438.03;5092086;28;20398;-46
2022/09/24 09:37:15;;;;;;;9.55;2.88;;;;;;;23.91;55.92;98432.16;5091787;28;20497;-47
2022/09/24 09:40:18;;;;;;;3.22;2.22;;;;;;;25.14;55.16;98419.06;5090743;28;20111;-46
2022/09/24 09:42:44;;;;;;;3.92;2.70;;;;;;;26.72;49.92;98421.59;5091599;28;20030;-47
2022/09/24 09:45:25;;;;;;;12.27;2.80;;;;;;;28.29;47.72;98416.09;5090575;28;20024;-47
2022/09/24 09:48:00;;;;;;;9.18;2.20;;;;;;;30.33;43.69;98406.56;5090589;28;20055;-47
2022/09/24 09:50:47;;;;;;;;;;;;;;;31.55;45.48;98412.91;5091964;28;20051;-47
2022/09/24 09:53:22;;;;;;;12.85;3.28;;;;;;;31.72;42.33;98409.09;5091613;28;19912;-47
2022/09/24 09:56:06;;;;;;;10.07;2.40;;;;;;;30.38;40.96;98411.75;5090167;28;20486;-47
2022/09/24 09:58:44;;;;;;;7.35;2.47;;;;;;;29.15;42.62;98414.06;5091522;28;20054;-47
2022/09/24 10:01:17;;;;;;;7.10;2.97;;;;;;;28.41;43.55;98418.13;5090209;28;20036;-47
2022/09/24 10:03:43;;;;;;;6.35;3.70;;;;;;;28.12;43.51;98421.59;5091532;28;20111;-45
2022/09/24 10:06:13;;;;;;;16.45;3.75;;;;;;;28.17;44.18;98413.31;5091448;28;20059;-45
2022/09/24 10:08:39;;;;;;;16.50;11.35;;;;;;;28.28;42.83;98411.84;5091436;28;20035;-47
2022/09/24 10:11:13;;;;;;;9.02;4.82;;;;;;;28.95;41.88;98404.03;5091070;28;20049;-44
2022/09/24 10:13:43;;;;;;;7.80;3.25;;;;;;;29.83;39.69;98399.50;5091520;28;20059;-47
2022/09/24 10:16:12;;;;;;;2.55;1.55;;;;;;;29.70;39.35;98404.06;5095296;28;20161;-47
2022/09/24 10:18:47;;;;;;;3.55;1.73;;;;;;;29.70;38.83;98395.94;5094976;28;20031;-46
2022/09/24 10:21:25;;;;;;;;;;;;;;;29.65;41.54;98391.50;5094216;28;20028;-46
2022/09/24 10:23:51;;;;;;;4.57;1.80;;;;;;;30.18;38.01;98383.63;5093979;28;19912;-47
2022/09/24 10:26:16;;;;;;;5.10;1.40;;;;;;;30.02;38.23;98393.53;5093861;28;20040;-47
2022/09/24 10:31:38;;;;;;;2.20;1.30;;;;;;;30.57;35.30;98378.69;5083028;28;20044;-48
2022/09/24 10:34:25;;;;;;;4.32;1.38;;;;;;;30.91;35.28;98371.19;5093425;28;20493;-47
2022/09/24 10:37:03;;;;;;;4.68;1.83;;;;;;;30.51;34.96;98371.13;5093477;28;20028;-47
2022/09/24 10:39:30;;;;;;;1.77;1.33;;;;;;;30.71;34.37;98378.31;5094703;28;20032;-46
2022/09/24 10:41:57;;;;;;;2.92;1.50;;;;;;;30.40;35.01;98368.88;5094640;28;20020;-47
2022/09/24 10:44:31;;;;;;;4.45;1.60;;;;;;;29.33;36.88;98365.28;5093383;28;20073;-47
2022/09/24 10:47:23;;;;;;;3.95;1.23;;;;;;;27.94;38.41;98369.59;5094637;28;20024;-47
2022/09/24 10:50:23;;;;;;;1.90;1.38;;;;;;;26.63;42.15;98369.66;5094413;28;20524;-47
2022/09/24 10:53:33;;;;;;;3.47;1.42;;;;;;;26.11;42.12;98367.56;5094662;28;20398;-47
2022/09/24 10:56:20;;;;;;;5.35;1.98;;;;;;;25.42;43.87;98370.66;5031824;28;20077;-47
2022/09/24 10:59:12;;;;;;;4.40;1.67;;;;;;;25.28;44.09;98359.97;5031912;28;20109;-47
2022/09/24 11:02:12;;;;;;;2.40;1.30;;;;;;;25.33;44.31;98367.09;5031786;28;20128;-47
2022/09/24 11:04:54;;;;;;;3.38;1.42;;;;;;;25.63;43.66;98358.28;5015155;28;20030;-46
2022/09/24 11:07:47;;;;;;;2.13;1.20;;;;;;;25.95;42.66;98355.63;4999451;28;20048;-46
2022/09/24 11:10:45;;;;;;;5.82;1.50;;;;;;;25.97;43.01;98351.53;5014672;28;20049;-47
2022/09/24 11:13:20;;;;;;;3.78;2.03;;;;;;;25.97;42.60;98356.91;5009798;28;20042;-47
2022/09/24 11:16:19;;;;;;;6.03;1.50;;;;;;;26.06;42.82;98349.66;5031571;28;20108;-47
2022/09/24 11:18:53;;;;;;;4.03;1.67;;;;;;;26.11;43.10;98351.41;5015477;28;20033;-47
2022/09/24 11:21:46;;;;;;;6.18;3.33;;;;;;;25.87;43.63;98339.09;5031449;28;20483;-47
2022/09/24 11:24:32;;;;;;;7.43;1.85;;;;;;;25.67;44.04;98337.75;5031270;28;20041;-47
2022/09/24 11:27:33;;;;;;;3.03;1.60;;;;;;;25.62;44.13;98340.56;5070675;28;20446;-46
2022/09/24 11:30:16;;;;;;;3.08;1.40;;;;;;;25.46;44.40;98342.06;5092378;28;20030;-46
2022/09/24 11:33:17;;;;;;;7.65;2.03;;;;;;;25.21;45.51;98338.91;5093692;28;20016;-47
2022/09/24 11:36:08;;;;;;;3.55;1.50;;;;;;;24.99;45.60;98331.59;5092301;28;20052;-45
2022/09/24 11:38:50;;;;;;;2.83;1.80;;;;;;;24.82;45.96;98334.91;5092256;28;20024;-47
2022/09/24 11:41:35;;;;;;;4.20;1.77;;;;;;;24.67;45.69;98333.38;5093881;28;20409;-46
2022/09/24 11:44:40;;;;;;;3.25;1.50;;;;;;;24.69;46.42;98327.72;5092275;28;20046;-45
2022/09/24 11:47:53;;;;;;;5.45;1.83;;;;;;;24.87;46.04;98328.63;5093508;28;20032;-45
2022/09/24 11:51:10;;;;;;;6.72;2.20;;;;;;;24.82;46.97;98313.44;5030768;28;20029;-46
2022/09/24 11:54:18;;;;;;;3.35;1.70;;;;;;;25.26;45.72;98309.22;4991622;28;20045;-47
2022/09/24 11:56:50;;;;;;;2.92;1.48;;;;;;;25.71;44.01;98308.34;4991417;28;20026;-45
2022/09/24 11:59:23;;;;;;;2.90;1.10;;;;;;;26.30;42.55;98303.53;4991460;28;20121;-47
2022/09/24 12:02:00;;;;;;;4.97;1.88;;;;;;;26.66;42.67;98304.41;4991373;28;20052;-47
2022/09/24 12:05:07;;;;;;;1.95;1.40;;;;;;;27.97;41.13;98288.81;4991385;28;20042;-47
2022/09/24 12:07:42;;;;;;;1.85;1.20;;;;;;;28.70;38.60;98282.34;4990703;28;20034;-47
2022/09/24 12:10:42;;;;;;;5.30;1.30;;;;;;;28.29;38.86;98281.97;4990701;28;20569;-47